• Join FlightAware (Why Join?)
  • Login
  • US Flag 
07:23AM EDT


 

Airport Tracker/Info


-or-


 

Live Flight TrackerFlight Track Log ✈ N618JB ✈ 07-Apr-2013 ✈ KPBI - KLGA

Flight Track Log - Related Links

Times and Time Zones

All times are in EDT time to prevent confusion due to time zone crossing. See the N618JB flight status page for this flight to view local times or setup timezone preferences in your user account.

Time Position Orientation Groundspeed Altitude Reporting Facility
EDT Latitude Longitude Course Direction KTS MPH feet Rate Location/Type
02:36PM 26.6836 -80.0000 55° Northeast 219 252 2,600  Level Miami Center
02:37PM 26.7350 -79.9456 43° Northeast 271 312 5,700 3,180 Climbing Miami Center
02:38PM 26.9312 -79.6768 55° Northeast  Level FlightAware Approximate
02:38PM 26.7967 -79.8844 41° Northeast 277 319 9,000  Level Miami Center
02:39PM 26.9888 -79.5846 55° Northeast  Level FlightAware Approximate
02:39PM 26.8503 -79.8183 48° Northeast 289 333 11,100  Level Miami Center
02:40PM 27.0474 -79.4932 56° Northeast  Level FlightAware Approximate
02:40PM 26.9000 -79.7428 54° Northeast 325 374 12,000  Level Miami Center
02:41PM 27.1041 -79.4002 55° Northeast  Level FlightAware Approximate
02:41PM 26.9667 -79.6442 53° Northeast 369 425 13,800  Level Miami Center
02:42PM 27.0397 -79.5339 53° Northeast 392 451 16,000 2,040 Climbing Miami Center
02:43PM 27.1086 -79.4236 55° Northeast 417 480 17,900 1,860 Climbing Miami Center
02:44PM 27.1750 -79.3222 54° Northeast 430 495 19,800 1,800 Climbing Miami Center
02:45PM 27.2478 -79.2094 54° Northeast 443 510 21,600 1,740 Climbing Miami Center
02:46PM 27.3394 -79.0989 47° Northeast 448 516 23,300 1,500 Climbing Miami Center
02:47PM 27.4550 -79.0497 21° North 437 503 24,700 1,320 Climbing Miami Center
02:48PM 27.5806 -79.0286 North 430 495 26,000 1,380 Climbing Miami Center
02:49PM 27.6978 -79.0122 North 451 519 27,500 1,440 Climbing Miami Center
02:50PM 27.8233 -78.9911 North 451 519 28,900 1,260 Climbing Miami Center
02:51PM 27.9469 -78.9722 North 451 519 30,100 1,200 Climbing Miami Center
02:52PM 28.0767 -78.9486 North 458 527 31,300 1,200 Climbing Miami Center
02:53PM 28.2022 -78.9297 North 463 533 32,500 1,200 Climbing Miami Center
02:54PM 28.3319 -78.9086 North 463 533 33,800 1,140 Climbing Miami Center
02:55PM 28.4575 -78.8897 North 463 533 34,800 960 Climbing Miami Center
02:56PM 28.5850 -78.8683 North 463 533 35,800 960 Climbing Miami Center
02:57PM 28.7083 -78.8492 North 463 533 36,800 600 Climbing Miami Center
02:58PM 28.8381 -78.8278 North 463 533 37,000 60 Climbing Miami Center
02:59PM 28.9636 -78.8086 North 463 533 37,000  Level Miami Center
03:00PM 29.0892 -78.7847 North 463 533 37,000  Level Miami Center
03:01PM 29.2083 -78.7608 10° North 458 527 37,000  Level Miami Center
03:02PM 29.3442 -78.7442 North 458 527 37,000  Level Miami Center
03:03PM 29.4736 -78.7272 North 464 534 37,000  Level Miami Center
03:04PM 29.6011 -78.7031 North 464 534 37,000  Level Miami Center
03:05PM 29.7328 -78.6886 North 464 534 37,000  Level Miami Center
03:07PM 30.0117 -78.6328 10° North 464 534 37,000  Level Jacksonville Center
03:08PM 30.1383 -78.6106 North 458 527 37,000  Level Jacksonville Center
03:09PM 30.2669 -78.5903 North 463 533 37,000  Level Jacksonville Center
03:10PM 30.3978 -78.5700 North 463 533 37,000  Level Jacksonville Center
03:11PM 30.5244 -78.5472 North 463 533 37,000  Level Jacksonville Center
03:12PM 30.6467 -78.5250 North 457 526 37,000  Level Jacksonville Center
03:13PM 30.7756 -78.5044 North 464 534 37,000  Level Jacksonville Center
03:14PM 30.9061 -78.4839 North 464 534 37,000 -60 Level Jacksonville Center
03:15PM 31.0308 -78.4633 North 456 525 36,900  Descending Jacksonville Center
03:16PM 31.1572 -78.4406 North 460 529 37,000  Climbing Jacksonville Center
03:17PM 31.2819 -78.4200 North 453 521 37,000  Level Jacksonville Center
03:18PM 31.4125 -78.3942 10° North 459 528 37,000 -60 Level Jacksonville Center
03:19PM 31.5392 -78.3761 North 459 528 36,900  Descending Jacksonville Center
03:20PM 31.6700 -78.3550 North 464 534 37,000  Climbing Jacksonville Center
03:21PM 31.8006 -78.3314 North 464 534 37,000  Level Jacksonville Center
03:22PM 31.9250 -78.3106 North 464 534 37,000 -60 Level Jacksonville Center
03:23PM 32.0578 -78.2869 North 464 534 36,900 -60 Descending Jacksonville Center
03:24PM 32.1842 -78.2633 North 464 534 36,900  Level Jacksonville Center
03:25PM 32.3086 -78.2397 North 464 534 36,900  Level Jacksonville Center
03:26PM 32.4247 -78.2167 10° North 464 534 37,000  Climbing Jacksonville Center
03:27PM 32.5494 -78.2078 North 464 534 37,000  Level Jacksonville Center
03:28PM 32.6728 -78.2089 360° North 447 514 37,000 -60 Level Jacksonville Center
03:29PM 32.7958 -78.2122 359° North 447 514 36,900  Descending Jacksonville Center
03:30PM 32.9172 -78.2183 358° North 442 509 37,000  Climbing Jacksonville Center
03:31PM 33.0425 -78.2217 359° North 442 509 37,000  Level Jacksonville Center
03:32PM 33.1647 -78.1981 North 442 509 37,000  Level Jacksonville Center
03:33PM 33.2867 -78.1642 13° North 442 509 37,000  Level Jacksonville Center
03:34PM 33.4358 -78.1247 12° North 428 493 37,000  Level Washington Center
03:35PM 33.5594 -78.0911 13° North 422 486 37,000  Level Washington Center
03:36PM 33.6811 -78.0572 13° North 434 499 37,000  Level Washington Center
03:37PM 33.8028 -78.0283 11° North 433 498 37,000  Level Washington Center
03:39PM 33.9340 -77.9707 12° North  Level FlightAware Approximate
03:39PM 34.0483 -77.9606 12° North 438 504 37,000  Level Washington Center
03:40PM 34.1719 -77.9239 14° North 443 510 37,000  Level Washington Center
03:41PM 34.2706 -77.8964 13° North 448 516 37,000  Level Washington Center
03:42PM 34.4067 -77.8700 North 448 516 37,000  Level Washington Center
03:43PM 34.5322 -77.8583 North 448 516 37,000  Level Washington Center
03:44PM 34.6514 -77.8442 North 443 510 37,000 -60 Level Washington Center
03:45PM 34.7747 -77.8372 North 443 510 36,900  Descending Washington Center
03:46PM 34.9064 -77.8183 North 443 510 37,000  Climbing Washington Center
03:47PM 35.0319 -77.8039 North 443 510 37,000  Level Washington Center
03:48PM 35.1531 -77.7894 North 443 510 37,000  Level Washington Center
03:49PM 35.2786 -77.7750 North 443 510 37,000  Level Washington Center
03:50PM 35.4019 -77.7631 North 443 510 37,000  Level Washington Center
03:51PM 35.5275 -77.7486 North 443 510 37,000  Level Washington Center
03:52PM 35.6508 -77.7367 North 443 510 37,000  Level Washington Center
03:53PM 35.7739 -77.7272 North 443 510 37,000  Level Washington Center
03:54PM 35.8889 -77.7122 North 448 516 37,000  Level Washington Center
03:55PM 36.0125 -77.6872 North 448 516 37,000  Level Washington Center
03:56PM 36.1367 -77.6367 18° North 448 516 37,000  Level Washington Center
03:57PM 36.2606 -77.5858 18° North 460 529 37,000  Level Washington Center
03:58PM 36.3825 -77.5322 19° North 465 535 37,000  Level Washington Center
03:59PM 36.5022 -77.4783 20° North 465 535 37,000  Level Washington Center
04:00PM 36.6239 -77.4242 20° North 465 535 37,000  Level Washington Center
04:01PM 36.7481 -77.3703 19° North 465 535 37,000  Level Washington Center
04:02PM 36.8717 -77.3183 19° North 465 535 37,000  Level Washington Center
04:03PM 36.9936 -77.2639 20° North 465 535 37,000  Level Washington Center
04:04PM 37.1175 -77.2094 19° North 471 542 37,000  Level Washington Center
04:05PM 37.2558 -77.1497 19° North 471 542 37,000  Level Washington Center
04:06PM 37.3653 -77.0839 26° Northeast 471 542 37,000  Level Washington Center
04:07PM 37.4936 -76.9894 30° Northeast 478 550 37,000  Level Washington Center
04:08PM 37.6133 -76.9053 29° Northeast 484 557 37,000  Level Washington Center
04:09PM 37.7289 -76.8206 30° Northeast 484 557 37,000  Level Washington Center
04:10PM 37.8361 -76.7381 31° Northeast 492 566 37,000 -60 Level Washington Center
04:11PM 37.9517 -76.6503 31° Northeast 492 566 36,900 -540 Descending Washington Center
04:12PM 38.0650 -76.5675 30° Northeast 487 560 36,000 -960 Descending Washington Center
04:13PM 38.1783 -76.4819 31° Northeast 475 547 35,000 -960 Descending Washington Center
04:14PM 38.2914 -76.3933 32° Northeast 475 547 34,100 -540 Descending Washington Center
04:15PM 38.4131 -76.2858 35° Northeast 480 552 34,000 -60 Descending Washington Center
04:16PM 38.5219 -76.1861 36° Northeast 480 552 34,000  Level Washington Center
04:17PM 38.6183 -76.0992 35° Northeast 480 552 34,000 -1,020 Level Washington Center
04:18PM 38.7250 -75.9989 36° Northeast 480 552 32,000 -2,220 Descending Washington Center
04:19PM 38.8317 -75.8956 37° Northeast 475 547 29,600 -2,400 Descending Washington Center
04:20PM 38.9361 -75.7972 36° Northeast 475 547 27,200 -1,380 Descending Washington Center
04:21PM 39.0403 -75.7011 36° Northeast 470 541 26,900 -120 Descending Washington Center
04:22PM 39.1447 -75.6022 36° Northeast 470 541 27,000 -300 Climbing Washington Center
04:23PM 39.2489 -75.5006 37° Northeast 470 541 26,400 -840 Descending Washington Center
04:24PM 39.3531 -75.4092 34° Northeast 465 535 25,400 -1,560 Descending Washington Center
04:25PM 39.4569 -75.3200 34° Northeast 460 529 23,300 -2,160 Descending Washington Center
04:26PM 39.5608 -75.2256 35° Northeast 455 524 21,100 -2,400 Descending Washington Center
04:27PM 39.6689 -75.1225 36° Northeast 443 510 18,500 -2,340 Descending Washington Center
04:28PM 39.7664 -75.0356 34° Northeast 438 504 16,500 -2,100 Descending Washington Center
04:29PM 39.8556 -74.9592 33° Northeast 412 474 14,400 -1,980 Descending Washington Center
04:31PM 39.9667 -74.8333 41° Northeast 384 442 11,700 -1,500 Descending New York TRACON
04:32PM 40.0500 -74.7167 47° Northeast 387 445 10,800 -900 Descending New York TRACON
04:33PM 40.1167 -74.6167 49° Northeast 376 433 10,000 -420 Descending New York TRACON
04:34PM 40.1833 -74.5167 49° Northeast 376 433 10,000  Level New York TRACON
04:35PM 40.2667 -74.4167 42° Northeast 377 434 10,000  Level New York TRACON
04:36PM 40.3333 -74.3333 44° Northeast 373 429 10,000 -540 Level New York TRACON
04:37PM 40.4000 -74.2500 44° Northeast 330 380 9,000 -1,140 Descending New York TRACON
04:38PM 40.4667 -74.1667 44° Northeast 321 369 7,800 -1,380 Descending New York TRACON
04:39PM 40.5333 -74.0833 44° Northeast 306 352 6,300 -1,560 Descending New York TRACON
04:40PM 40.6167 -74.0500 17° North 292 336 4,700 -1,200 Descending New York TRACON
04:41PM 40.6833 -74.0333 11° North 284 327 4,000 -600 Descending New York TRACON
04:42PM 40.7667 -74.0000 17° North 287 330 3,600 -600 Descending New York TRACON
04:43PM 40.8167 -73.9333 45° Northeast 280 322 2,900 -600 Descending New York TRACON
04:44PM 40.8833 -73.8833 30° Northeast 245 282 2,500 -300 Descending New York TRACON
04:45PM 40.9000 -73.8167 72° East 201 231 2,300 -360 Descending New York TRACON
04:46PM 40.8667 -73.8167 180° South 161 185 1,800 -600 Descending New York TRACON
04:47PM 40.8333 -73.8333 201° Southwest 123 142 1,100 -660 Descending New York TRACON
04:48PM 40.8000 -73.8500 201° Southwest 122 140 500 -600 Descending New York TRACON